Maimiti — PBIJ — position and weather

sailwx.info

Track history (hours):
 
Tides and Currents Weather Stations Pressure Air Temp Water Temp Dewpoint Dewpoint Depression Visibility Wind Speed Wind Dir Waves Ship Positions

Maimiti

Last reported at 2016-Feb-10 08:33 UTC. Time now 2016-Feb-13 06:50 UTC.
Position N 52°19' E 003°11'.

Length 35 m; draft 6.8 m.

Type: Tug. MMSI: 244850959.

Date/timePositionNaut miles runAvg speedWind from/ knotsBaromVisibWave heightAir tempDewpointWater temp
2016-Feb-10 08:33N 52°19' E 003°11'3 2.7
2016-Feb-10 07:33N 52°18' E 003°14'3 3.1
2016-Feb-10 06:34N 52°16' E 003°18'3 3.5
2016-Feb-10 05:33N 52°13' E 003°23'4 3.1
2016-Feb-10 04:21N 52°11' E 003°27'2 2.4
2016-Feb-10 03:31N 52°10' E 003°30'2 1.9
2016-Feb-10 02:27N 52°09' E 003°33'5 2.0
2016-Feb-10 00:12N 52°07' E 003°39'2 2.6
2016-Feb-09 23:22N 52°06' E 003°43'2 2.9
2016-Feb-09 22:33N 52°05' E 003°46'3 3.2
2016-Feb-09 21:33N 52°04' E 003°51'4 3.6
2016-Feb-09 20:33N 52°03' E 003°57'3 2.8
2016-Feb-09 19:33N 52°01' E 003°60'4 3.8
2016-Feb-09 18:34N 51°59' E 004°05'5 4.9
2016-Feb-09 17:33N 51°56' E 004°12'4 3.9
2016-Feb-09 16:33N 51°54' E 004°17'1 1.2
2016-Feb-09 15:34N 51°53' E 004°18'1 0.8
2016-Feb-09 14:33N 51°53' E 004°17'0 0.0
2016-Feb-09 13:33N 51°53' E 004°17'4 3.5
2016-Feb-09 12:33N 51°56' E 004°13'8 8.2
2016-Feb-09 11:33N 51°60' E 004°01'48 7.9
2016-Feb-09 05:28N 52°46' E 004°21'5 5.7
2016-Feb-09 04:33N 52°49' E 004°28'5 4.9
2016-Feb-09 03:33N 52°52' E 004°35'6 6.5
2016-Feb-09 02:33N 52°57' E 004°41'3 3.1
2016-Feb-09 01:31N 52°58' E 004°47'0 0.0
2016-Feb-09 00:31N 52°58' E 004°46'0 0.0
2016-Feb-08 23:31N 52°58' E 004°46'0 0.0
2016-Feb-08 22:31N 52°58' E 004°47'0 0.0
2016-Feb-08 21:25N 52°58' E 004°47'0 0.0
2016-Feb-08 20:22N 52°58' E 004°47'0 0.0
2016-Feb-08 19:31N 52°58' E 004°47'0 0.0
2016-Feb-08 18:31N 52°58' E 004°47'0 0.0
2016-Feb-08 17:31N 52°58' E 004°46'0 0.0
2016-Feb-08 16:31N 52°58' E 004°47'0 0.0
2016-Feb-08 15:28N 52°58' E 004°47'0 0.0
2016-Feb-08 14:34N 52°58' E 004°47'0 0.0
2016-Feb-08 13:33N 52°58' E 004°46'0 0.0
2016-Feb-08 12:33N 52°58' E 004°47'0 0.0
2016-Feb-08 11:33N 52°58' E 004°47'0 0.0
2016-Feb-08 10:33N 52°58' E 004°47'0 0.0
2016-Feb-08 09:34N 52°58' E 004°46'0 0.0
2016-Feb-08 08:33N 52°58' E 004°47'0 0.0
2016-Feb-08 07:33N 52°58' E 004°46'0 0.0
2016-Feb-08 06:33N 52°58' E 004°47'0 0.0
2016-Feb-08 05:34N 52°58' E 004°47'0 0.0
2016-Feb-08 04:33N 52°58' E 004°47'0 0.0
2016-Feb-08 03:33N 52°58' E 004°47'0 0.0
2016-Feb-08 02:33N 52°58' E 004°47'0 0.0
2016-Feb-08 01:33N 52°58' E 004°46'0 0.0
2016-Feb-08 00:34N 52°58' E 004°46'0 0.0
2016-Feb-07 23:33N 52°58' E 004°47'0 0.0
2016-Feb-07 22:34N 52°58' E 004°47'0 0.0
2016-Feb-07 21:33N 52°58' E 004°47'0 0.0
2016-Feb-07 20:33N 52°58' E 004°47'0 0.0
2016-Feb-07 19:33N 52°58' E 004°47'0 0.0
2016-Feb-07 18:33N 52°58' E 004°47'0 0.0
2016-Feb-07 17:33N 52°58' E 004°46'0 0.0
2016-Feb-07 16:33N 52°58' E 004°47'0 0.0
2016-Feb-07 15:34N 52°58' E 004°46'0 0.0
2016-Feb-07 14:33N 52°58' E 004°47'0 0.0
2016-Feb-07 13:27N 52°58' E 004°47'0 0.0
2016-Feb-07 12:34N 52°58' E 004°47'0 0.0
2016-Feb-07 11:33N 52°58' E 004°46'0 0.0
2016-Feb-07 10:33N 52°58' E 004°47'0 0.0
2016-Feb-07 09:34N 52°58' E 004°46'0 0.0
2016-Feb-07 08:34N 52°58' E 004°46'0 0.0
2016-Feb-07 07:33N 52°58' E 004°47'0 0.0
2016-Feb-07 06:33N 52°58' E 004°46'0 0.0
2016-Feb-07 05:33N 52°58' E 004°47'0 0.0
2016-Feb-07 04:33N 52°58' E 004°47'0 0.0
2016-Feb-07 03:33N 52°58' E 004°46'0 0.0
2016-Feb-07 02:34N 52°58' E 004°47'0 0.0
2016-Feb-07 01:33N 52°58' E 004°47'0 0.0
2016-Feb-07 00:34N 52°58' E 004°47'0 0.0
2016-Feb-06 23:33N 52°58' E 004°47'0 0.0
2016-Feb-06 22:33N 52°58' E 004°47'0 0.0
2016-Feb-06 21:34N 52°58' E 004°47'0 0.0
2016-Feb-06 20:33N 52°58' E 004°46'0 0.0
2016-Feb-06 19:34N 52°58' E 004°47'0 0.0
2016-Feb-06 18:33N 52°58' E 004°47'0 0.0
2016-Feb-06 17:34N 52°58' E 004°46'0 0.0
2016-Feb-06 16:34N 52°58' E 004°47'0 0.0
2016-Feb-06 15:33N 52°58' E 004°47'0 0.0
2016-Feb-06 14:34N 52°58' E 004°47'0 0.0
2016-Feb-06 13:33N 52°58' E 004°46'0 0.0
2016-Feb-06 12:33N 52°58' E 004°47'0 0.0
2016-Feb-06 11:33N 52°58' E 004°46'0 0.0
2016-Feb-06 10:34N 52°58' E 004°47'0 0.0
2016-Feb-06 09:34N 52°58' E 004°46'0 0.0
2016-Feb-06 08:33N 52°58' E 004°47'0 0.0
2016-Feb-06 07:34N 52°58' E 004°47'0 0.0
2016-Feb-06 06:34N 52°58' E 004°46'0 0.0
2016-Feb-06 05:33N 52°58' E 004°47'0 0.0
2016-Feb-06 04:33N 52°58' E 004°47'0 0.0
2016-Feb-06 03:33N 52°58' E 004°47'0 0.0
2016-Feb-06 02:33N 52°58' E 004°47'0 0.0
2016-Feb-06 01:34N 52°58' E 004°47'0 0.0
2016-Feb-06 00:34N 52°58' E 004°47'0 0.0
2016-Feb-05 23:33N 52°58' E 004°47'0 0.0
2016-Feb-05 22:33N 52°58' E 004°47'0 0.0
2016-Feb-05 21:34N 52°58' E 004°47'0 0.0
2016-Feb-05 20:34N 52°58' E 004°46'0 0.0
2016-Feb-05 19:33N 52°58' E 004°47'0 0.0
2016-Feb-05 18:34N 52°58' E 004°47'0 0.0
2016-Feb-05 17:33N 52°58' E 004°46'0 0.0
2016-Feb-05 16:34N 52°58' E 004°46'0 0.0
2016-Feb-05 15:33N 52°58' E 004°46'0 0.0
2016-Feb-05 14:33N 52°58' E 004°47'0 0.0
2016-Feb-05 09:34N 52°58' E 004°47'0 0.0
2016-Feb-05 08:33N 52°58' E 004°46'0 0.0
2016-Feb-05 07:33N 52°58' E 004°47'0 0.0
2016-Feb-05 06:33N 52°58' E 004°47'0 0.0
2016-Feb-05 05:34N 52°58' E 004°47'0 0.0
2016-Feb-05 04:34N 52°58' E 004°47'0 0.0
2016-Feb-05 03:34N 52°58' E 004°46'0 0.0
2016-Feb-05 02:34N 52°58' E 004°47'0 0.0
2016-Feb-05 01:33N 52°58' E 004°46'0 0.0
2016-Feb-05 00:34N 52°58' E 004°47'0 0.0
2016-Feb-04 23:34N 52°58' E 004°46'0 0.0
2016-Feb-04 22:33N 52°58' E 004°47'0 0.0
2016-Feb-04 21:34N 52°58' E 004°47'0 0.0
2016-Feb-04 20:34N 52°58' E 004°47'0 0.0
2016-Feb-04 19:34N 52°58' E 004°47'0 0.0
2016-Feb-04 18:33N 52°58' E 004°47'0 0.0
2016-Feb-04 17:33N 52°58' E 004°46'0 0.0
2016-Feb-04 16:33N 52°58' E 004°46'0 0.0
2016-Feb-04 15:34N 52°58' E 004°47'0 0.0
2016-Feb-04 14:34N 52°58' E 004°46'0 0.0
2016-Feb-04 13:33N 52°58' E 004°46'0 0.0
2016-Feb-04 12:33N 52°58' E 004°47'0 0.0
2016-Feb-04 11:33N 52°58' E 004°47'0 0.0
2016-Feb-04 10:34N 52°58' E 004°46'0 0.0
2016-Feb-04 09:34N 52°58' E 004°46'0 0.0
2016-Feb-04 08:34N 52°58' E 004°46'0 0.0
2016-Feb-04 07:34N 52°58' E 004°47'0 0.0
2016-Feb-04 06:33N 52°58' E 004°46'0 0.0
2016-Feb-04 05:33N 52°58' E 004°47'0 0.0
2016-Feb-04 04:34N 52°58' E 004°46'0 0.0
2016-Feb-04 03:34N 52°58' E 004°46'0 0.0
2016-Feb-04 02:34N 52°58' E 004°47'0 0.0
2016-Feb-04 01:34N 52°58' E 004°47'0 0.0
2016-Feb-04 00:34N 52°58' E 004°47'0 0.0
2016-Feb-03 23:34N 52°58' E 004°47'0 0.0
2016-Feb-03 22:34N 52°58' E 004°47'0 0.0
2016-Feb-03 21:33N 52°58' E 004°46'0 0.0
2016-Feb-03 20:34N 52°58' E 004°47'0 0.0
2016-Feb-03 19:33N 52°58' E 004°47'0 0.0
2016-Feb-03 18:33N 52°58' E 004°47'0 0.0
2016-Feb-03 17:33N 52°58' E 004°46'0 0.0
2016-Feb-03 16:34N 52°58' E 004°47'0 0.0
2016-Feb-03 15:33N 52°58' E 004°47'0 0.0
2016-Feb-03 14:33N 52°58' E 004°47'0 0.0
2016-Feb-03 13:33N 52°58' E 004°46'0 0.0
2016-Feb-03 12:33N 52°58' E 004°47'0 0.0
2016-Feb-03 11:34N 52°58' E 004°47'0 0.0
2016-Feb-03 10:33N 52°58' E 004°47'0 0.0
2016-Feb-03 09:33N 52°58' E 004°47'0 0.0
2016-Feb-03 08:33N 52°58' E 004°46'0 0.0
2016-Feb-03 07:34N 52°58' E 004°47'0 0.0
2016-Feb-03 06:33N 52°58' E 004°46'0 0.0
2016-Feb-03 05:34N 52°58' E 004°47'0 0.0
2016-Feb-03 04:33N 52°58' E 004°46'0 0.0
2016-Feb-03 03:34N 52°58' E 004°46'0 0.0
2016-Feb-03 02:34N 52°58' E 004°47'0 0.0
2016-Feb-03 01:33N 52°58' E 004°47'0 0.0
2016-Feb-03 00:34N 52°58' E 004°47'0 0.0
2016-Feb-02 23:34N 52°58' E 004°47'0 0.0
2016-Feb-02 22:33N 52°58' E 004°46'0 0.0
2016-Feb-02 21:34N 52°58' E 004°47'0 0.0
2016-Feb-02 20:34N 52°58' E 004°47'0 0.0
2016-Feb-02 19:33N 52°58' E 004°47'0 0.0
2016-Feb-02 18:33N 52°58' E 004°47'0 0.0
2016-Feb-02 17:33N 52°58' E 004°46'0 0.0
2016-Feb-02 16:34N 52°58' E 004°46'0 0.0
2016-Feb-02 15:33N 52°58' E 004°46'0 0.0
2016-Feb-02 14:33N 52°58' E 004°47'0 0.0
2016-Feb-02 13:34N 52°58' E 004°47'0 0.0
2016-Feb-02 12:34N 52°58' E 004°47'0 0.0
2016-Feb-02 11:33N 52°58' E 004°47'0 0.0
2016-Feb-02 10:33N 52°58' E 004°47'0 0.0
2016-Feb-02 09:34N 52°58' E 004°47'0 0.1
2016-Feb-02 08:34N 52°58' E 004°47'0 0.0
2016-Feb-02 07:33N 52°58' E 004°47'0 0.1
2016-Feb-02 06:34N 52°58' E 004°46'0 0.0
2016-Feb-02 05:34N 52°58' E 004°47'0 0.0
2016-Feb-02 04:34N 52°58' E 004°47'0 0.0
2016-Feb-02 03:34N 52°58' E 004°46'0 0.0
2016-Feb-02 02:33N 52°58' E 004°46'0 0.0
2016-Feb-02 01:34N 52°58' E 004°46'0 0.0
2016-Feb-02 00:34N 52°58' E 004°47'0 0.0
2016-Feb-01 23:34N 52°58' E 004°46'0 0.0
2016-Feb-01 22:34N 52°58' E 004°46'0 0.0
2016-Feb-01 21:33N 52°58' E 004°47'0 0.0
2016-Feb-01 20:34N 52°58' E 004°46'0 0.0
2016-Feb-01 19:34N 52°58' E 004°47'0 0.0
2016-Feb-01 18:33N 52°58' E 004°46'0 0.0
2016-Feb-01 17:34N 52°58' E 004°46'0 0.0
2016-Feb-01 16:34N 52°58' E 004°46'0 0.0
2016-Feb-01 15:33N 52°58' E 004°47'0 0.0
2016-Feb-01 14:33N 52°58' E 004°46'0 0.0
2016-Feb-01 13:34N 52°58' E 004°47'0 0.0
2016-Feb-01 12:33N 52°58' E 004°46'0 0.0
2016-Feb-01 11:34N 52°58' E 004°46'0 0.0
2016-Feb-01 10:33N 52°58' E 004°46'0 0.0
2016-Feb-01 09:34N 52°58' E 004°47'0 0.0
2016-Feb-01 08:34N 52°58' E 004°47'0 0.0
2016-Feb-01 07:34N 52°58' E 004°47'0 0.0
2016-Feb-01 06:33N 52°58' E 004°46'0 0.0
2016-Feb-01 05:33N 52°58' E 004°46'0 0.0
2016-Feb-01 04:33N 52°58' E 004°47'0 0.0
2016-Feb-01 03:34N 52°58' E 004°47'0 0.0
2016-Feb-01 02:34N 52°58' E 004°47'0 0.0
2016-Feb-01 01:34N 52°58' E 004°46'0 0.0
2016-Feb-01 00:34N 52°58' E 004°47'0 0.0
2016-Jan-31 23:33N 52°58' E 004°46'0 0.0
2016-Jan-31 22:34N 52°58' E 004°46'0 0.0
2016-Jan-31 21:34N 52°58' E 004°47'0 0.0
2016-Jan-31 20:34N 52°58' E 004°47'0 0.0
2016-Jan-31 19:34N 52°58' E 004°47'0 0.0
2016-Jan-31 18:33N 52°58' E 004°46'0 0.0
2016-Jan-31 17:34N 52°58' E 004°46'0 0.0
2016-Jan-31 16:34N 52°58' E 004°46'0 0.0
2016-Jan-31 15:34N 52°58' E 004°47'0 0.0
2016-Jan-31 14:34N 52°58' E 004°47'0 0.0
2016-Jan-31 13:34N 52°58' E 004°46'0 0.0
2016-Jan-31 12:34N 52°58' E 004°46'0 0.0
2016-Jan-31 11:34N 52°58' E 004°46'0 0.0
2016-Jan-31 10:34N 52°58' E 004°46'0 0.0
2016-Jan-31 09:33N 52°58' E 004°47'  
Track history (hours):
 
Tides and Currents Weather Stations Pressure Air Temp Water Temp Dewpoint Dewpoint Depression Visibility Wind Speed Wind Dir Waves Ship Positions

Maimiti

Last reported at 2016-Feb-10 08:33 UTC. Time now 2016-Feb-13 06:50 UTC.
Position N 52°19' E 003°11'.

Length 35 m; draft 6.8 m.

Type: Tug. MMSI: 244850959.

Date/timePositionNaut miles runAvg speedWind from/ knotsBaromVisibWave heightAir tempDewpointWater temp
2016-Feb-10 08:33N 52°19' E 003°11'3 2.7
2016-Feb-10 07:33N 52°18' E 003°14'3 3.1
2016-Feb-10 06:34N 52°16' E 003°18'3 3.5
2016-Feb-10 05:33N 52°13' E 003°23'4 3.1
2016-Feb-10 04:21N 52°11' E 003°27'2 2.4
2016-Feb-10 03:31N 52°10' E 003°30'2 1.9
2016-Feb-10 02:27N 52°09' E 003°33'5 2.0
2016-Feb-10 00:12N 52°07' E 003°39'2 2.6
2016-Feb-09 23:22N 52°06' E 003°43'2 2.9
2016-Feb-09 22:33N 52°05' E 003°46'3 3.2
2016-Feb-09 21:33N 52°04' E 003°51'4 3.6
2016-Feb-09 20:33N 52°03' E 003°57'3 2.8
2016-Feb-09 19:33N 52°01' E 003°60'4 3.8
2016-Feb-09 18:34N 51°59' E 004°05'5 4.9
2016-Feb-09 17:33N 51°56' E 004°12'4 3.9
2016-Feb-09 16:33N 51°54' E 004°17'1 1.2
2016-Feb-09 15:34N 51°53' E 004°18'1 0.8
2016-Feb-09 14:33N 51°53' E 004°17'0 0.0
2016-Feb-09 13:33N 51°53' E 004°17'4 3.5
2016-Feb-09 12:33N 51°56' E 004°13'8 8.2
2016-Feb-09 11:33N 51°60' E 004°01'48 7.9
2016-Feb-09 05:28N 52°46' E 004°21'5 5.7
2016-Feb-09 04:33N 52°49' E 004°28'5 4.9
2016-Feb-09 03:33N 52°52' E 004°35'6 6.5
2016-Feb-09 02:33N 52°57' E 004°41'3 3.1
2016-Feb-09 01:31N 52°58' E 004°47'0 0.0
2016-Feb-09 00:31N 52°58' E 004°46'0 0.0
2016-Feb-08 23:31N 52°58' E 004°46'0 0.0
2016-Feb-08 22:31N 52°58' E 004°47'0 0.0
2016-Feb-08 21:25N 52°58' E 004°47'0 0.0
2016-Feb-08 20:22N 52°58' E 004°47'0 0.0
2016-Feb-08 19:31N 52°58' E 004°47'0 0.0
2016-Feb-08 18:31N 52°58' E 004°47'0 0.0
2016-Feb-08 17:31N 52°58' E 004°46'0 0.0
2016-Feb-08 16:31N 52°58' E 004°47'0 0.0
2016-Feb-08 15:28N 52°58' E 004°47'0 0.0
2016-Feb-08 14:34N 52°58' E 004°47'0 0.0
2016-Feb-08 13:33N 52°58' E 004°46'0 0.0
2016-Feb-08 12:33N 52°58' E 004°47'0 0.0
2016-Feb-08 11:33N 52°58' E 004°47'0 0.0
2016-Feb-08 10:33N 52°58' E 004°47'0 0.0
2016-Feb-08 09:34N 52°58' E 004°46'0 0.0
2016-Feb-08 08:33N 52°58' E 004°47'0 0.0
2016-Feb-08 07:33N 52°58' E 004°46'0 0.0
2016-Feb-08 06:33N 52°58' E 004°47'0 0.0
2016-Feb-08 05:34N 52°58' E 004°47'0 0.0
2016-Feb-08 04:33N 52°58' E 004°47'0 0.0
2016-Feb-08 03:33N 52°58' E 004°47'0 0.0
2016-Feb-08 02:33N 52°58' E 004°47'0 0.0
2016-Feb-08 01:33N 52°58' E 004°46'0 0.0
2016-Feb-08 00:34N 52°58' E 004°46'0 0.0
2016-Feb-07 23:33N 52°58' E 004°47'0 0.0
2016-Feb-07 22:34N 52°58' E 004°47'0 0.0
2016-Feb-07 21:33N 52°58' E 004°47'0 0.0
2016-Feb-07 20:33N 52°58' E 004°47'0 0.0
2016-Feb-07 19:33N 52°58' E 004°47'0 0.0
2016-Feb-07 18:33N 52°58' E 004°47'0 0.0
2016-Feb-07 17:33N 52°58' E 004°46'0 0.0
2016-Feb-07 16:33N 52°58' E 004°47'0 0.0
2016-Feb-07 15:34N 52°58' E 004°46'0 0.0
2016-Feb-07 14:33N 52°58' E 004°47'0 0.0
2016-Feb-07 13:27N 52°58' E 004°47'0 0.0
2016-Feb-07 12:34N 52°58' E 004°47'0 0.0
2016-Feb-07 11:33N 52°58' E 004°46'0 0.0
2016-Feb-07 10:33N 52°58' E 004°47'0 0.0
2016-Feb-07 09:34N 52°58' E 004°46'0 0.0
2016-Feb-07 08:34N 52°58' E 004°46'0 0.0
2016-Feb-07 07:33N 52°58' E 004°47'0 0.0
2016-Feb-07 06:33N 52°58' E 004°46'0 0.0
2016-Feb-07 05:33N 52°58' E 004°47'0 0.0
2016-Feb-07 04:33N 52°58' E 004°47'0 0.0
2016-Feb-07 03:33N 52°58' E 004°46'0 0.0
2016-Feb-07 02:34N 52°58' E 004°47'0 0.0
2016-Feb-07 01:33N 52°58' E 004°47'0 0.0
2016-Feb-07 00:34N 52°58' E 004°47'0 0.0
2016-Feb-06 23:33N 52°58' E 004°47'0 0.0
2016-Feb-06 22:33N 52°58' E 004°47'0 0.0
2016-Feb-06 21:34N 52°58' E 004°47'0 0.0
2016-Feb-06 20:33N 52°58' E 004°46'0 0.0
2016-Feb-06 19:34N 52°58' E 004°47'0 0.0
2016-Feb-06 18:33N 52°58' E 004°47'0 0.0
2016-Feb-06 17:34N 52°58' E 004°46'0 0.0
2016-Feb-06 16:34N 52°58' E 004°47'0 0.0
2016-Feb-06 15:33N 52°58' E 004°47'0 0.0
2016-Feb-06 14:34N 52°58' E 004°47'0 0.0
2016-Feb-06 13:33N 52°58' E 004°46'0 0.0
2016-Feb-06 12:33N 52°58' E 004°47'0 0.0
2016-Feb-06 11:33N 52°58' E 004°46'0 0.0
2016-Feb-06 10:34N 52°58' E 004°47'0 0.0
2016-Feb-06 09:34N 52°58' E 004°46'0 0.0
2016-Feb-06 08:33N 52°58' E 004°47'0 0.0
2016-Feb-06 07:34N 52°58' E 004°47'0 0.0
2016-Feb-06 06:34N 52°58' E 004°46'0 0.0
2016-Feb-06 05:33N 52°58' E 004°47'0 0.0
2016-Feb-06 04:33N 52°58' E 004°47'0 0.0
2016-Feb-06 03:33N 52°58' E 004°47'0 0.0
2016-Feb-06 02:33N 52°58' E 004°47'0 0.0
2016-Feb-06 01:34N 52°58' E 004°47'0 0.0
2016-Feb-06 00:34N 52°58' E 004°47'0 0.0
2016-Feb-05 23:33N 52°58' E 004°47'0 0.0
2016-Feb-05 22:33N 52°58' E 004°47'0 0.0
2016-Feb-05 21:34N 52°58' E 004°47'0 0.0
2016-Feb-05 20:34N 52°58' E 004°46'0 0.0
2016-Feb-05 19:33N 52°58' E 004°47'0 0.0
2016-Feb-05 18:34N 52°58' E 004°47'0 0.0
2016-Feb-05 17:33N 52°58' E 004°46'0 0.0
2016-Feb-05 16:34N 52°58' E 004°46'0 0.0
2016-Feb-05 15:33N 52°58' E 004°46'0 0.0
2016-Feb-05 14:33N 52°58' E 004°47'0 0.0
2016-Feb-05 09:34N 52°58' E 004°47'0 0.0
2016-Feb-05 08:33N 52°58' E 004°46'0 0.0
2016-Feb-05 07:33N 52°58' E 004°47'0 0.0
2016-Feb-05 06:33N 52°58' E 004°47'0 0.0
2016-Feb-05 05:34N 52°58' E 004°47'0 0.0
2016-Feb-05 04:34N 52°58' E 004°47'0 0.0
2016-Feb-05 03:34N 52°58' E 004°46'0 0.0
2016-Feb-05 02:34N 52°58' E 004°47'0 0.0
2016-Feb-05 01:33N 52°58' E 004°46'0 0.0
2016-Feb-05 00:34N 52°58' E 004°47'0 0.0
2016-Feb-04 23:34N 52°58' E 004°46'0 0.0
2016-Feb-04 22:33N 52°58' E 004°47'0 0.0
2016-Feb-04 21:34N 52°58' E 004°47'0 0.0
2016-Feb-04 20:34N 52°58' E 004°47'0 0.0
2016-Feb-04 19:34N 52°58' E 004°47'0 0.0
2016-Feb-04 18:33N 52°58' E 004°47'0 0.0
2016-Feb-04 17:33N 52°58' E 004°46'0 0.0
2016-Feb-04 16:33N 52°58' E 004°46'0 0.0
2016-Feb-04 15:34N 52°58' E 004°47'0 0.0
2016-Feb-04 14:34N 52°58' E 004°46'0 0.0
2016-Feb-04 13:33N 52°58' E 004°46'0 0.0
2016-Feb-04 12:33N 52°58' E 004°47'0 0.0
2016-Feb-04 11:33N 52°58' E 004°47'0 0.0
2016-Feb-04 10:34N 52°58' E 004°46'0 0.0
2016-Feb-04 09:34N 52°58' E 004°46'0 0.0
2016-Feb-04 08:34N 52°58' E 004°46'0 0.0
2016-Feb-04 07:34N 52°58' E 004°47'0 0.0
2016-Feb-04 06:33N 52°58' E 004°46'0 0.0
2016-Feb-04 05:33N 52°58' E 004°47'0 0.0
2016-Feb-04 04:34N 52°58' E 004°46'0 0.0
2016-Feb-04 03:34N 52°58' E 004°46'0 0.0
2016-Feb-04 02:34N 52°58' E 004°47'0 0.0
2016-Feb-04 01:34N 52°58' E 004°47'0 0.0
2016-Feb-04 00:34N 52°58' E 004°47'0 0.0
2016-Feb-03 23:34N 52°58' E 004°47'0 0.0
2016-Feb-03 22:34N 52°58' E 004°47'0 0.0
2016-Feb-03 21:33N 52°58' E 004°46'0 0.0
2016-Feb-03 20:34N 52°58' E 004°47'0 0.0
2016-Feb-03 19:33N 52°58' E 004°47'0 0.0
2016-Feb-03 18:33N 52°58' E 004°47'0 0.0
2016-Feb-03 17:33N 52°58' E 004°46'0 0.0
2016-Feb-03 16:34N 52°58' E 004°47'0 0.0
2016-Feb-03 15:33N 52°58' E 004°47'0 0.0
2016-Feb-03 14:33N 52°58' E 004°47'0 0.0
2016-Feb-03 13:33N 52°58' E 004°46'0 0.0
2016-Feb-03 12:33N 52°58' E 004°47'0 0.0
2016-Feb-03 11:34N 52°58' E 004°47'0 0.0
2016-Feb-03 10:33N 52°58' E 004°47'0 0.0
2016-Feb-03 09:33N 52°58' E 004°47'0 0.0
2016-Feb-03 08:33N 52°58' E 004°46'0 0.0
2016-Feb-03 07:34N 52°58' E 004°47'0 0.0
2016-Feb-03 06:33N 52°58' E 004°46'0 0.0
2016-Feb-03 05:34N 52°58' E 004°47'0 0.0
2016-Feb-03 04:33N 52°58' E 004°46'0 0.0
2016-Feb-03 03:34N 52°58' E 004°46'0 0.0
2016-Feb-03 02:34N 52°58' E 004°47'0 0.0
2016-Feb-03 01:33N 52°58' E 004°47'0 0.0
2016-Feb-03 00:34N 52°58' E 004°47'0 0.0
2016-Feb-02 23:34N 52°58' E 004°47'0 0.0
2016-Feb-02 22:33N 52°58' E 004°46'0 0.0
2016-Feb-02 21:34N 52°58' E 004°47'0 0.0
2016-Feb-02 20:34N 52°58' E 004°47'0 0.0
2016-Feb-02 19:33N 52°58' E 004°47'0 0.0
2016-Feb-02 18:33N 52°58' E 004°47'0 0.0
2016-Feb-02 17:33N 52°58' E 004°46'0 0.0
2016-Feb-02 16:34N 52°58' E 004°46'0 0.0
2016-Feb-02 15:33N 52°58' E 004°46'0 0.0
2016-Feb-02 14:33N 52°58' E 004°47'0 0.0
2016-Feb-02 13:34N 52°58' E 004°47'0 0.0
2016-Feb-02 12:34N 52°58' E 004°47'0 0.0
2016-Feb-02 11:33N 52°58' E 004°47'0 0.0
2016-Feb-02 10:33N 52°58' E 004°47'0 0.0
2016-Feb-02 09:34N 52°58' E 004°47'0 0.1
2016-Feb-02 08:34N 52°58' E 004°47'0 0.0
2016-Feb-02 07:33N 52°58' E 004°47'0 0.1
2016-Feb-02 06:34N 52°58' E 004°46'0 0.0
2016-Feb-02 05:34N 52°58' E 004°47'0 0.0
2016-Feb-02 04:34N 52°58' E 004°47'0 0.0
2016-Feb-02 03:34N 52°58' E 004°46'0 0.0
2016-Feb-02 02:33N 52°58' E 004°46'0 0.0
2016-Feb-02 01:34N 52°58' E 004°46'0 0.0
2016-Feb-02 00:34N 52°58' E 004°47'0 0.0
2016-Feb-01 23:34N 52°58' E 004°46'0 0.0
2016-Feb-01 22:34N 52°58' E 004°46'0 0.0
2016-Feb-01 21:33N 52°58' E 004°47'0 0.0
2016-Feb-01 20:34N 52°58' E 004°46'0 0.0
2016-Feb-01 19:34N 52°58' E 004°47'0 0.0
2016-Feb-01 18:33N 52°58' E 004°46'0 0.0
2016-Feb-01 17:34N 52°58' E 004°46'0 0.0
2016-Feb-01 16:34N 52°58' E 004°46'0 0.0
2016-Feb-01 15:33N 52°58' E 004°47'0 0.0
2016-Feb-01 14:33N 52°58' E 004°46'0 0.0
2016-Feb-01 13:34N 52°58' E 004°47'0 0.0
2016-Feb-01 12:33N 52°58' E 004°46'0 0.0
2016-Feb-01 11:34N 52°58' E 004°46'0 0.0
2016-Feb-01 10:33N 52°58' E 004°46'0 0.0
2016-Feb-01 09:34N 52°58' E 004°47'0 0.0
2016-Feb-01 08:34N 52°58' E 004°47'0 0.0
2016-Feb-01 07:34N 52°58' E 004°47'0 0.0
2016-Feb-01 06:33N 52°58' E 004°46'0 0.0
2016-Feb-01 05:33N 52°58' E 004°46'0 0.0
2016-Feb-01 04:33N 52°58' E 004°47'0 0.0
2016-Feb-01 03:34N 52°58' E 004°47'0 0.0
2016-Feb-01 02:34N 52°58' E 004°47'0 0.0
2016-Feb-01 01:34N 52°58' E 004°46'0 0.0
2016-Feb-01 00:34N 52°58' E 004°47'0 0.0
2016-Jan-31 23:33N 52°58' E 004°46'0 0.0
2016-Jan-31 22:34N 52°58' E 004°46'0 0.0
2016-Jan-31 21:34N 52°58' E 004°47'0 0.0
2016-Jan-31 20:34N 52°58' E 004°47'0 0.0
2016-Jan-31 19:34N 52°58' E 004°47'0 0.0
2016-Jan-31 18:33N 52°58' E 004°46'0 0.0
2016-Jan-31 17:34N 52°58' E 004°46'0 0.0
2016-Jan-31 16:34N 52°58' E 004°46'0 0.0
2016-Jan-31 15:34N 52°58' E 004°47'0 0.0
2016-Jan-31 14:34N 52°58' E 004°47'0 0.0
2016-Jan-31 13:34N 52°58' E 004°46'0 0.0
2016-Jan-31 12:34N 52°58' E 004°46'0 0.0
2016-Jan-31 11:34N 52°58' E 004°46'0 0.0
2016-Jan-31 10:34N 52°58' E 004°46'0 0.0
2016-Jan-31 09:33N 52°58' E 004°47'  

Dump ship's entire track history